Time;durP1;ratioP1;P1;durP2;ratioP2;P2;SDS_P1;SDS_P2;PMS_P1;PMS_P2;Temp;Humidity;BMP_temperature;BMP_pressure;BME280_temperature;BME280_humidity;BME280_pressure;Samples;Min_cycle;Max_cycle;Signal;HPM_P1;HPM_P2
2023/03/03 00:01:31;;;;;;;;;;;;;;;-142.41;100.00;64449.00;5134955;27;20002;-65
2023/03/03 00:03:57;;;;;;;;;;;;;;;-142.41;100.00;64449.00;5135048;27;19912;-66
2023/03/03 00:06:23;;;;;;;;;;;;;;;-142.41;100.00;64449.00;5134625;27;19939;-65
2023/03/03 00:08:49;;;;;;;;;;;;;;;-142.41;100.00;64449.00;5134445;27;20270;-65
2023/03/03 00:11:14;;;;;;;;;;;;;;;-142.41;100.00;64449.00;5134711;27;19912;-65
2023/03/03 00:13:47;;;;;;;;;;;;;;;-142.41;100.00;64449.00;5134722;27;19911;-65
2023/03/03 00:16:20;;;;;;;;;;;;;;;-142.41;100.00;64449.00;5134630;27;19912;-67
2023/03/03 00:18:46;;;;;;;;;;;;;;;-142.41;100.00;64449.00;5134542;27;19975;-68
2023/03/03 00:21:21;;;;;;;;;;;;;;;-142.41;100.00;64449.00;5134356;27;19916;-66
2023/03/03 00:23:46;;;;;;;;;;;;;;;-142.41;100.00;64449.00;5116186;27;19956;-65
2023/03/03 00:26:30;;;;;;;;;;;;;;;-142.41;100.00;64449.00;5133637;27;20010;-67
2023/03/03 00:28:58;;;;;;;;;;;;;;;-142.41;100.00;64449.00;5116190;27;20263;-68
2023/03/03 00:31:33;;;;;;;;;;;;;;;-142.41;100.00;64449.00;5134395;27;19916;-67
2023/03/03 00:34:10;;;;;;;;;;;;;;;-142.41;100.00;64449.00;5134259;27;19916;-68
2023/03/03 00:37:00;;;;;;;;;;;;;;;-142.41;100.00;64449.00;5134551;27;19957;-68
2023/03/03 00:39:26;;;;;;;;;;;;;;;-142.41;100.00;64449.00;5134195;27;19915;-67
2023/03/03 00:41:52;;;;;;;;;;;;;;;-142.41;100.00;64449.00;5134032;27;19912;-67
2023/03/03 00:44:38;;;;;;;;;;;;;;;-142.41;100.00;64449.00;5134466;27;19919;-66
2023/03/03 00:47:09;;;;;;;;;;;;;;;-142.41;100.00;64449.00;5133891;27;19911;-67
2023/03/03 00:49:35;;;;;;;;;;;;;;;-142.41;100.00;64449.00;5134430;27;19912;-65
2023/03/03 00:52:01;;;;;;;;;;;;;;;-142.41;100.00;64449.00;5134462;27;19931;-66
2023/03/03 00:54:26;;;;;;;;;;;;;;;-142.41;100.00;64449.00;5134255;27;19918;-66
2023/03/03 00:56:52;;;;;;;;;;;;;;;-142.41;100.00;64449.00;5134403;27;19911;-67
2023/03/03 00:59:17;;;;;;;;;;;;;;;-142.41;100.00;64449.00;5133694;27;19915;-67
2023/03/03 01:01:42;;;;;;;;;;;;;;;-142.41;100.00;64449.00;5133642;27;19911;-67
2023/03/03 01:04:08;;;;;;;;;;;;;;;-142.41;100.00;64449.00;5133991;27;20427;-66
2023/03/03 01:06:33;;;;;;;;;;;;;;;-142.41;100.00;64449.00;5133965;27;19966;-67
2023/03/03 01:08:58;;;;;;;;;;;;;;;-142.41;100.00;64449.00;5133574;27;19912;-66
2023/03/03 01:11:25;;;;;;;;;;;;;;;-142.41;100.00;64449.00;5133295;27;20362;-67
2023/03/03 01:13:51;;;;;;;;;;;;;;;-142.41;100.00;64449.00;5133530;27;19951;-67
2023/03/03 01:16:16;;;;;;;;;;;;;;;-142.41;100.00;64449.00;5133765;27;19919;-68
2023/03/03 01:18:42;;;;;;;;;;;;;;;-142.41;100.00;64449.00;5115222;28;20378;-67
2023/03/03 01:21:10;;;;;;;;;;;;;;;-142.41;100.00;64449.00;5133348;27;19912;-67
2023/03/03 01:23:36;;;;;;;;;;;;;;;-142.41;100.00;64449.00;5133359;27;19998;-67
2023/03/03 01:26:03;;;;;;;;;;;;;;;-142.41;100.00;64449.00;5133434;27;19946;-67
2023/03/03 01:28:28;;;;;;;;;;;;;;;-142.41;100.00;64449.00;5133590;27;19912;-66
2023/03/03 01:31:01;;;;;;;;;;;;;;;-142.41;100.00;64449.00;5133281;27;20010;-69
2023/03/03 01:33:26;;;;;;;;;;;;;;;-142.41;100.00;64449.00;5133354;28;19967;-68
2023/03/03 01:35:52;;;;;;;;;;;;;;;-142.41;100.00;64449.00;5133458;28;20017;-67
2023/03/03 01:38:17;;;;;;;;;;;;;;;-142.41;100.00;64449.00;5138180;27;19990;-67
2023/03/03 01:40:50;;;;;;;;;;;;;;;-142.41;100.00;64449.00;5138118;27;19918;-67
2023/03/03 01:43:15;;;;;;;;;;;;;;;-142.41;100.00;64449.00;5138257;27;19957;-68
2023/03/03 01:45:44;;;;;;;;;;;;;;;-142.41;100.00;64449.00;5137586;27;20026;-66
2023/03/03 01:48:13;;;;;;;;;;;;;;;-142.41;100.00;64449.00;5137775;27;19911;-68
2023/03/03 01:50:47;;;;;;;;;;;;;;;-142.41;100.00;64449.00;5137243;27;19912;-66
2023/03/03 01:53:16;;;;;;;;;;;;;;;-142.41;100.00;64449.00;5137322;27;19911;-66
2023/03/03 01:55:42;;;;;;;;;;;;;;;-142.41;100.00;64449.00;5119163;27;19943;-66
2023/03/03 01:58:20;;;;;;;;;;;;;;;-142.41;100.00;64449.00;5137260;27;19923;-67
2023/03/03 02:00:49;;;;;;;;;;;;;;;-142.41;100.00;64449.00;5137278;27;19918;-66
2023/03/03 02:03:14;;;;;;;;;;;;;;;-142.41;100.00;64449.00;5137054;27;19911;-67
2023/03/03 02:05:40;;;;;;;;;;;;;;;-142.41;100.00;64449.00;5137168;27;19911;-67
2023/03/03 02:08:07;;;;;;;;;;;;;;;-142.41;100.00;64449.00;5137246;27;19911;-67
2023/03/03 02:10:33;;;;;;;;;;;;;;;-142.41;100.00;64449.00;5118440;27;19911;-66
2023/03/03 02:12:59;;;;;;;;;;;;;;;-142.41;100.00;64449.00;5137003;27;19911;-67
2023/03/03 02:15:26;;;;;;;;;;;;;;;-142.41;100.00;64449.00;5136940;27;20389;-67
2023/03/03 02:17:53;;;;;;;;;;;;;;;-142.41;100.00;64449.00;5136737;27;19923;-67
2023/03/03 02:20:21;;;;;;;;;;;;;;;-142.41;100.00;64449.00;5136750;27;19915;-66
2023/03/03 02:23:06;;;;;;;;;;;;;;;-142.41;100.00;64449.00;5101518;27;19911;-67
2023/03/03 02:26:01;;;;;;;;;;;;;;;-142.41;100.00;64449.00;5135589;27;19915;-66
2023/03/03 02:28:28;;;;;;;;;;;;;;;-142.41;100.00;64449.00;5136966;27;20374;-67
2023/03/03 02:30:55;;;;;;;;;;;;;;;-142.41;100.00;64449.00;5136898;27;19940;-66
2023/03/03 02:33:20;;;;;;;;;;;;;;;-142.41;100.00;64449.00;5136753;27;19944;-66
2023/03/03 02:35:45;;;;;;;;;;;;;;;-142.41;100.00;64449.00;5136767;27;20397;-66
2023/03/03 02:38:20;;;;;;;;;;;;;;;-142.41;100.00;64449.00;5137219;27;19929;-67
2023/03/03 02:41:26;;;;;;;;;;;;;;;-142.41;100.00;64449.00;5137256;27;20406;-67
2023/03/03 02:43:56;;;;;;;;;;;;;;;-142.41;100.00;64449.00;5136604;27;20029;-67
2023/03/03 02:46:22;;;;;;;;;;;;;;;-142.41;100.00;64449.00;5136534;27;19911;-67
2023/03/03 02:48:47;;;;;;;;;;;;;;;-142.41;100.00;64449.00;5135295;27;19918;-66
2023/03/03 02:51:13;;;;;;;;;;;;;;;-142.41;100.00;64449.00;5136281;27;19918;-67
2023/03/03 02:53:38;;;;;;;;;;;;;;;-142.41;100.00;64449.00;5117724;27;20354;-68
2023/03/03 02:56:03;;;;;;;;;;;;;;;-142.41;100.00;64449.00;5136391;27;19912;-67
2023/03/03 02:58:29;;;;;;;;;;;;;;;-142.41;100.00;64449.00;5136156;27;19911;-68
2023/03/03 03:00:55;;;;;;;;;;;;;;;-142.41;100.00;64449.00;5136074;27;20297;-66
2023/03/03 03:03:21;;;;;;;;;;;;;;;-142.41;100.00;64449.00;5135874;27;20018;-65
2023/03/03 03:05:46;;;;;;;;;;;;;;;-142.41;100.00;64449.00;5135813;27;19926;-67
2023/03/03 03:08:12;;;;;;;;;;;;;;;-142.41;100.00;64449.00;5135879;27;19919;-68
2023/03/03 03:10:37;;;;;;;;;;;;;;;-142.41;100.00;64449.00;5135967;27;20304;-67
2023/03/03 03:13:02;;;;;;;;;;;;;;;-142.41;100.00;64449.00;5135587;27;19911;-67
2023/03/03 03:15:28;;;;;;;;;;;;;;;-142.41;100.00;64449.00;5136534;27;19912;-66
2023/03/03 03:17:53;;;;;;;;;;;;;;;-142.41;100.00;64449.00;5135718;27;19911;-68
2023/03/03 03:20:18;;;;;;;;;;;;;;;-142.41;100.00;64449.00;5135509;27;19965;-67
2023/03/03 03:22:44;;;;;;;;;;;;;;;-142.41;100.00;64449.00;5135637;27;20270;-67
2023/03/03 03:25:09;;;;;;;;;;;;;;;-142.41;100.00;64449.00;5135508;27;20278;-67
2023/03/03 03:27:34;;;;;;;;;;;;;;;-142.41;100.00;64449.00;5135539;27;20359;-66
2023/03/03 03:30:01;;;;;;;;;;;;;;;-142.41;100.00;64449.00;5135201;27;19958;-70
2023/03/03 03:32:52;;;;;;;;;;;;;;;-142.41;100.00;64449.00;5135471;27;20021;-68
2023/03/03 03:35:17;;;;;;;;;;;;;;;-142.41;100.00;64449.00;5135414;27;19973;-67
2023/03/03 03:37:43;;;;;;;;;;;;;;;-142.41;100.00;64449.00;5135271;27;19976;-68
2023/03/03 03:40:08;;;;;;;;;;;;;;;-142.41;100.00;64449.00;5135205;27;19911;-66
2023/03/03 03:42:35;;;;;;;;;;;;;;;-142.41;100.00;64449.00;5134252;27;19919;-67
2023/03/03 03:45:00;;;;;;;;;;;;;;;-142.41;100.00;64449.00;5135052;27;19918;-67
2023/03/03 03:47:25;;;;;;;;;;;;;;;-142.41;100.00;64449.00;5135135;27;20362;-66
2023/03/03 03:49:51;;;;;;;;;;;;;;;-142.41;100.00;64449.00;5135261;27;19915;-68
2023/03/03 03:52:16;;;;;;;;;;;;;;;-142.41;100.00;64449.00;5134935;27;19948;-67
2023/03/03 03:54:42;;;;;;;;;;;;;;;-142.41;100.00;64449.00;5135033;27;19912;-66
2023/03/03 03:57:07;;;;;;;;;;;;;;;-142.41;100.00;64449.00;5134776;27;19943;-67
2023/03/03 03:59:32;;;;;;;;;;;;;;;-142.41;100.00;64449.00;5134722;27;20451;-66
2023/03/03 04:01:57;;;;;;;;;;;;;;;-142.41;100.00;64449.00;5125754;27;20363;-71
2023/03/03 04:04:23;;;;;;;;;;;;;;;-142.41;100.00;64449.00;5114187;28;19912;-67
2023/03/03 04:06:48;;;;;;;;;;;;;;;-142.41;100.00;64449.00;5114278;28;20399;-66
2023/03/03 04:09:14;;;;;;;;;;;;;;;-142.41;100.00;64449.00;5114266;28;19956;-67
2023/03/03 04:11:39;;;;;;;;;;;;;;;-142.41;100.00;64449.00;5114149;28;20248;-65
2023/03/03 04:14:05;;;;;;;;;;;;;;;-142.41;100.00;64449.00;5113880;28;19911;-65
2023/03/03 04:16:30;;;;;;;;;;;;;;;-142.41;100.00;64449.00;5113687;28;20292;-66
2023/03/03 04:18:55;;;;;;;;;;;;;;;-142.41;100.00;64449.00;5113979;28;19911;-69
2023/03/03 04:21:21;;;;;;;;;;;;;;;-142.41;100.00;64449.00;5113766;28;19958;-66
2023/03/03 04:23:46;;;;;;;;;;;;;;;-142.41;100.00;64449.00;5114267;28;19916;-68
2023/03/03 04:26:11;;;;;;;;;;;;;;;-142.41;100.00;64449.00;5113878;28;19939;-65
2023/03/03 04:28:37;;;;;;;;;;;;;;;-142.41;100.00;64449.00;5113553;28;19999;-66
2023/03/03 04:31:04;;;;;;;;;;;;;;;-142.41;100.00;64449.00;5113602;28;19923;-66
2023/03/03 04:33:29;;;;;;;;;;;;;;;-142.41;100.00;64449.00;5113557;28;19916;-65
2023/03/03 04:35:55;;;;;;;;;;;;;;;-142.41;100.00;64449.00;5113715;28;19964;-65
2023/03/03 04:38:20;;;;;;;;;;;;;;;-142.41;100.00;64449.00;5113502;28;19947;-64
2023/03/03 04:40:45;;;;;;;;;;;;;;;-142.41;100.00;64449.00;5113392;28;19911;-64
2023/03/03 04:43:12;;;;;;;;;;;;;;;-142.41;100.00;64449.00;5114342;28;19930;-65
2023/03/03 04:45:37;;;;;;;;;;;;;;;-142.41;100.00;64449.00;5113529;28;19912;-67
2023/03/03 04:48:02;;;;;;;;;;;;;;;-142.41;100.00;64449.00;5113151;28;19911;-65
2023/03/03 04:50:28;;;;;;;;;;;;;;;-142.41;100.00;64449.00;5111979;28;19912;-63
2023/03/03 04:52:53;;;;;;;;;;;;;;;-142.41;100.00;64449.00;5126674;27;19972;-64
2023/03/03 04:55:18;;;;;;;;;;;;;;;-142.41;100.00;64449.00;5133394;27;19911;-65
2023/03/03 04:57:44;;;;;;;;;;;;;;;-142.41;100.00;64449.00;5115089;27;20299;-66
2023/03/03 05:00:12;;;;;;;;;;;;;;;-142.41;100.00;64449.00;5132724;27;20403;-64
2023/03/03 05:02:37;;;;;;;;;;;;;;;-142.41;100.00;64449.00;5132695;27;19911;-66
2023/03/03 05:05:03;;;;;;;;;;;;;;;-142.41;100.00;64449.00;5132134;27;19919;-64
2023/03/03 05:07:28;;;;;;;;;;;;;;;-142.41;100.00;64449.00;5113801;27;20321;-64
2023/03/03 05:09:53;;;;;;;;;;;;;;;-142.41;100.00;64449.00;5113896;27;20374;-64
2023/03/03 05:12:20;;;;;;;;;;;;;;;-142.41;100.00;64449.00;5131532;27;20463;-65
2023/03/03 05:14:45;;;;;;;;;;;;;;;-142.41;100.00;64449.00;5133269;27;20030;-64
2023/03/03 05:17:10;;;;;;;;;;;;;;;-142.41;100.00;64449.00;5133860;27;19964;-65
2023/03/03 05:19:36;;;;;;;;;;;;;;;-142.41;100.00;64449.00;5133475;27;19957;-65
2023/03/03 05:22:01;;;;;;;;;;;;;;;-142.41;100.00;64449.00;5133543;27;19915;-67
2023/03/03 05:24:26;;;;;;;;;;;;;;;-142.41;100.00;64449.00;5133389;27;19911;-69
2023/03/03 05:26:52;;;;;;;;;;;;;;;-142.41;100.00;64449.00;5133858;27;20097;-64
2023/03/03 05:29:17;;;;;;;;;;;;;;;-142.41;100.00;64449.00;5133015;27;19912;-67
2023/03/03 05:31:45;;;;;;;;;;;;;;;-142.41;100.00;64449.00;5133302;27;20349;-69
2023/03/03 05:34:35;;;;;;;;;;;;;;;-142.41;100.00;64449.00;5133220;27;19938;-67
2023/03/03 05:37:02;;;;;;;;;;;;;;;-142.41;100.00;64449.00;5133004;28;20322;-63
2023/03/03 05:39:31;;;;;;;;;;;;;;;-142.41;100.00;64449.00;5114560;28;20052;-65
2023/03/03 05:41:56;;;;;;;;;;;;;;;-142.41;100.00;64449.00;5133124;28;19911;-64
2023/03/03 05:44:22;;;;;;;;;;;;;;;-142.41;100.00;64449.00;5133137;28;19967;-65
2023/03/03 05:46:47;;;;;;;;;;;;;;;-142.41;100.00;64449.00;5133079;28;20301;-66
2023/03/03 05:49:13;;;;;;;;;;;;;;;-142.41;100.00;64449.00;5133069;28;19911;-67
2023/03/03 05:51:38;;;;;;;;;;;;;;;-142.41;100.00;64449.00;5132545;28;19911;-67
2023/03/03 05:54:03;;;;;;;;;;;;;;;-142.41;100.00;64449.00;5128753;28;19950;-64
2023/03/03 05:56:29;;;;;;;;;;;;;;;-142.41;100.00;64449.00;5114347;28;19912;-65
2023/03/03 05:58:54;;;;;;;;;;;;;;;-142.41;100.00;64449.00;5112384;28;19919;-66
2023/03/03 06:01:21;;;;;;;;;;;;;;;-142.41;100.00;64449.00;5112487;28;19945;-65
2023/03/03 06:03:46;;;;;;;;;;;;;;;-142.41;100.00;64449.00;5119931;28;19927;-66
2023/03/03 06:06:12;;;;;;;;;;;;;;;-142.41;100.00;64449.00;5132804;28;19916;-66
2023/03/03 06:08:38;;;;;;;;;;;;;;;-142.41;100.00;64449.00;5107451;28;20002;-66
2023/03/03 06:11:03;;;;;;;;;;;;;;;-142.41;100.00;64449.00;5132764;28;19994;-65
2023/03/03 06:13:29;;;;;;;;;;;;;;;-142.41;100.00;64449.00;5132353;28;20014;-66
2023/03/03 06:15:54;;;;;;;;;;;;;;;-142.41;100.00;64449.00;5132656;28;20342;-67
2023/03/03 06:18:19;;;;;;;;;;;;;;;-142.41;100.00;64449.00;5132989;28;19937;-64
2023/03/03 06:20:49;;;;;;;;;;;;;;;-142.41;100.00;64449.00;5133155;28;19911;-66
2023/03/03 06:23:14;;;;;;;;;;;;;;;-142.41;100.00;64449.00;5122034;28;19934;-66
2023/03/03 06:25:40;;;;;;;;;;;;;;;-142.41;100.00;64449.00;5123331;27;20919;-67
2023/03/03 06:28:05;;;;;;;;;;;;;;;-142.41;100.00;64449.00;5136790;27;19970;-65
2023/03/03 06:30:32;;;;;;;;;;;;;;;-142.41;100.00;64449.00;5136358;27;19919;-65
2023/03/03 06:32:58;;;;;;;;;;;;;;;-142.41;100.00;64449.00;5136233;27;20342;-65
2023/03/03 06:35:24;;;;;;;;;;;;;;;-142.41;100.00;64449.00;5136306;27;19912;-66
2023/03/03 06:37:50;;;;;;;;;;;;;;;-142.41;100.00;64449.00;5118142;27;19918;-65
2023/03/03 06:40:15;;;;;;;;;;;;;;;-142.41;100.00;64449.00;5118293;27;19947;-66
2023/03/03 06:42:41;;;;;;;;;;;;;;;-142.41;100.00;64449.00;5136482;27;19923;-65
2023/03/03 06:45:06;;;;;;;;;;;;;;;-142.41;100.00;64449.00;5136153;27;19920;-64
2023/03/03 06:47:32;;;;;;;;;;;;;;;-142.41;100.00;64449.00;5136166;27;19918;-65
2023/03/03 06:49:58;;;;;;;;;;;;;;;-142.41;100.00;64449.00;5135899;27;19919;-66
2023/03/03 06:52:24;;;;;;;;;;;;;;;-142.41;100.00;64449.00;5135791;27;20258;-64
2023/03/03 06:54:54;;;;;;;;;;;;;;;-142.41;100.00;64449.00;5135753;27;20407;-66
2023/03/03 06:57:24;;;;;;;;;;;;;;;-142.41;100.00;64449.00;5117656;27;20419;-67
2023/03/03 06:59:51;;;;;;;;;;;;;;;-142.41;100.00;64449.00;5136042;27;19941;-68
2023/03/03 07:02:17;;;;;;;;;;;;;;;-142.41;100.00;64449.00;5135979;27;19972;-65
2023/03/03 07:04:42;;;;;;;;;;;;;;;-142.41;100.00;64449.00;5110812;27;20416;-65
2023/03/03 07:07:15;;;;;;;;;;;;;;;-142.41;100.00;64449.00;5115661;28;20041;-66
2023/03/03 07:09:42;;;;;;;;;;;;;;;-142.41;100.00;64449.00;5115189;28;19912;-67
2023/03/03 07:12:18;;;;;;;;;;;;;;;-142.41;100.00;64449.00;5115196;28;19923;-66
2023/03/03 07:14:45;;;;;;;;;;;;;;;-142.41;100.00;64449.00;5115027;28;19911;-67
2023/03/03 07:17:15;;;;;;;;;;;;;;;-142.41;100.00;64449.00;5115051;28;19912;-67
2023/03/03 07:19:41;;;;;;;;;;;;;;;-142.41;100.00;64449.00;5115001;28;19919;-65
2023/03/03 07:22:18;;;;;;;;;;;;;;;-142.41;100.00;64449.00;5096408;28;20006;-66
2023/03/03 07:24:44;;;;;;;;;;;;;;;-142.41;100.00;64449.00;5115019;28;20296;-66
2023/03/03 07:27:12;;;;;;;;;;;;;;;-142.41;100.00;64449.00;5115516;28;20010;-65
2023/03/03 07:29:41;;;;;;;;;;;;;;;-142.41;100.00;64449.00;5079764;28;19912;-64
2023/03/03 07:32:19;;;;;;;;;;;;;;;-142.41;100.00;64449.00;5115023;28;19916;-64
2023/03/03 07:34:46;;;;;;;;;;;;;;;-142.41;100.00;64449.00;5114907;28;19968;-65
2023/03/03 07:37:34;;;;;;;;;;;;;;;-142.41;100.00;64449.00;5115349;28;19915;-63
2023/03/03 07:39:59;;;;;;;;;;;;;;;-142.41;100.00;64449.00;5114860;28;19934;-65
2023/03/03 07:42:26;;;;;;;;;;;;;;;-142.41;100.00;64449.00;5095402;28;20410;-66
2023/03/03 07:44:53;;;;;;;;;;;;;;;-142.41;100.00;64449.00;5114400;28;19961;-63
2023/03/03 07:47:27;;;;;;;;;;;;;;;-142.41;100.00;64449.00;5096308;28;19916;-66
2023/03/03 07:50:12;;;;;;;;;;;;;;;-142.41;100.00;64449.00;5114549;28;20009;-66
2023/03/03 07:52:42;;;;;;;;;;;;;;;-142.41;100.00;64449.00;5114328;28;19955;-66
2023/03/03 07:55:26;;;;;;;;;;;;;;;-142.41;100.00;64449.00;5114254;28;19920;-66
2023/03/03 07:57:52;;;;;;;;;;;;;;;-142.41;100.00;64449.00;5114340;28;20213;-64
2023/03/03 08:00:18;;;;;;;;;;;;;;;-142.41;100.00;64449.00;5096065;28;19965;-62
2023/03/03 08:02:45;;;;;;;;;;;;;;;-142.41;100.00;64449.00;5114387;28;19913;-66
2023/03/03 08:05:25;;;;;;;;;;;;;;;-142.41;100.00;64449.00;5114189;28;19919;-65
2023/03/03 08:07:50;;;;;;;;;;;;;;;-142.41;100.00;64449.00;5114032;28;19943;-64
2023/03/03 08:10:39;;;;;;;;;;;;;;;-142.41;100.00;64449.00;5114345;28;19958;-64
2023/03/03 08:13:26;;;;;;;;;;;;;;;-142.41;100.00;64449.00;5102852;28;19954;-65
2023/03/03 08:15:56;;;;;;;;;;;;;;;-142.41;100.00;64449.00;5114070;28;19920;-64
2023/03/03 08:18:28;;;;;;;;;;;;;;;-142.41;100.00;64449.00;5095550;28;19973;-64
2023/03/03 08:20:55;;;;;;;;;;;;;;;-142.41;100.00;64449.00;5113764;28;20382;-65
2023/03/03 08:23:21;;;;;;;;;;;;;;;-142.41;100.00;64449.00;5114043;28;19916;-65
2023/03/03 08:25:47;;;;;;;;;;;;;;;-142.41;100.00;64449.00;5114101;28;20271;-64
2023/03/03 08:28:12;;;;;;;;;;;;;;;-142.41;100.00;64449.00;5113701;28;19937;-64
2023/03/03 08:30:38;;;;;;;;;;;;;;;-142.41;100.00;64449.00;5113374;28;20395;-65
2023/03/03 08:33:04;;;;;;;;;;;;;;;-142.41;100.00;64449.00;5113572;28;19922;-65
2023/03/03 08:35:30;;;;;;;;;;;;;;;-142.41;100.00;64449.00;5114398;27;20283;-65
2023/03/03 08:37:55;;;;;;;;;;;;;;;-142.41;100.00;64449.00;5106114;27;19912;-63
2023/03/03 08:40:20;;;;;;;;;;;;;;;-142.41;100.00;64449.00;5134534;27;19919;-65
2023/03/03 08:42:46;;;;;;;;;;;;;;;-142.41;100.00;64449.00;5134210;27;19911;-64
2023/03/03 08:45:11;;;;;;;;;;;;;;;-142.41;100.00;64449.00;5114116;28;19920;-66
2023/03/03 08:47:38;;;;;;;;;;;;;;;-142.41;100.00;64449.00;5094526;28;19968;-64
2023/03/03 08:50:04;;;;;;;;;;;;;;;-142.41;100.00;64449.00;5113173;28;20018;-66
2023/03/03 08:52:29;;;;;;;;;;;;;;;-142.41;100.00;64449.00;5113471;28;19911;-65
2023/03/03 08:54:54;;;;;;;;;;;;;;;-142.41;100.00;64449.00;5113169;28;20458;-66
2023/03/03 08:57:20;;;;;;;;;;;;;;;-142.41;100.00;64449.00;5113280;28;19919;-68
2023/03/03 08:59:46;;;;;;;;;;;;;;;-142.41;100.00;64449.00;5094834;28;20500;-66
2023/03/03 09:02:12;;;;;;;;;;;;;;;-142.41;100.00;64449.00;5112871;28;20432;-65
2023/03/03 09:04:37;;;;;;;;;;;;;;;-142.41;100.00;64449.00;5113106;28;19920;-65
2023/03/03 09:07:03;;;;;;;;;;;;;;;-142.41;100.00;64449.00;5113060;28;19957;-66
2023/03/03 09:09:28;;;;;;;;;;;;;;;-142.41;100.00;64449.00;5112931;28;20328;-66
2023/03/03 09:11:56;;;;;;;;;;;;;;;-142.41;100.00;64449.00;5113047;28;20387;-69
2023/03/03 09:14:26;;;;;;;;;;;;;;;-142.41;100.00;64449.00;5112866;28;19923;-66
2023/03/03 09:16:52;;;;;;;;;;;;;;;-142.41;100.00;64449.00;5113162;28;19912;-65
2023/03/03 09:19:44;;;;;;;;;;;;;;;-142.41;100.00;64449.00;5113227;28;19954;-68
2023/03/03 09:22:20;;;;;;;;;;;;;;;-142.41;100.00;64449.00;5109269;28;19919;-65
2023/03/03 09:24:47;;;;;;;;;;;;;;;-142.41;100.00;64449.00;5094739;28;19912;-65
2023/03/03 09:27:17;;;;;;;;;;;;;;;-142.41;100.00;64449.00;5112579;28;20263;-64
2023/03/03 09:29:44;;;;;;;;;;;;;;;-142.41;100.00;64449.00;5112921;28;19919;-64
2023/03/03 09:32:23;;;;;;;;;;;;;;;-142.41;100.00;64449.00;5112879;28;19963;-68
2023/03/03 09:34:49;;;;;;;;;;;;;;;-142.41;100.00;64449.00;5112609;28;19979;-70
2023/03/03 09:37:14;;;;;;;;;;;;;;;-142.41;100.00;64449.00;5112717;28;19915;-69
2023/03/03 09:39:43;;;;;;;;;;;;;;;-142.41;100.00;64449.00;5112718;28;20377;-70
2023/03/03 09:42:23;;;;;;;;;;;;;;;-142.41;100.00;64449.00;5112070;28;20055;-69
2023/03/03 09:44:54;;;;;;;;;;;;;;;-142.41;100.00;64449.00;5112911;28;20398;-69
2023/03/03 09:47:29;;;;;;;;;;;;;;;-142.41;100.00;64449.00;5112814;28;20472;-69
2023/03/03 09:50:25;;;;;;;;;;;;;;;-142.41;100.00;64449.00;5112916;28;20270;-69
2023/03/03 09:52:57;;;;;;;;;;;;;;;-142.41;100.00;64449.00;5112530;28;19916;-70
2023/03/03 09:55:37;;;;;;;;;;;;;;;-142.41;100.00;64449.00;5112694;28;20004;-66
2023/03/03 09:58:02;;;;;;;;;;;;;;;-142.41;100.00;64449.00;5113510;28;20351;-68
2023/03/03 10:00:28;;;;;;;;;;;;;;;-142.41;100.00;64449.00;5100443;28;19919;-68
2023/03/03 10:03:11;;;;;;;;;;;;;;;-142.41;100.00;64449.00;5116715;28;19965;-66
2023/03/03 10:05:55;;;;;;;;;;;;;;;-142.41;100.00;64449.00;5116611;28;19912;-68
2023/03/03 10:08:29;;;;;;;;;;;;;;;-142.41;100.00;64449.00;5116500;28;19912;-68
2023/03/03 10:11:01;;;;;;;;;;;;;;;-142.41;100.00;64449.00;5098033;28;19912;-69
2023/03/03 10:13:34;;;;;;;;;;;;;;;-142.41;100.00;64449.00;5116611;28;19914;-68
2023/03/03 10:16:18;;;;;;;;;;;;;;;-142.41;100.00;64449.00;5116267;28;19916;-69
2023/03/03 10:19:02;;;;;;;;;;;;;;;-142.41;100.00;64449.00;5116428;28;19989;-65
2023/03/03 10:21:36;;;;;;;;;;;;;;;-142.41;100.00;64449.00;5116108;28;20283;-67
2023/03/03 10:24:16;;;;;;;;;;;;;;;-142.41;100.00;64449.00;5116308;28;20033;-69
2023/03/03 10:26:50;;;;;;;;;;;;;;;-142.41;100.00;64449.00;5116342;28;19916;-67
2023/03/03 10:29:42;;;;;;;;;;;;;;;-142.41;100.00;64449.00;5116096;28;20365;-70
2023/03/03 10:32:27;;;;;;;;;;;;;;;-142.41;100.00;64449.00;5115970;28;19947;-67
2023/03/03 10:35:11;;;;;;;;;;;;;;;-142.41;100.00;64449.00;5116349;28;19924;-66
2023/03/03 10:38:03;;;;;;;;;;;;;;;-142.41;100.00;64449.00;5116226;28;20350;-69
2023/03/03 10:40:41;;;;;;;;;;;;;;;-142.41;100.00;64449.00;5115842;28;20260;-65
2023/03/03 10:43:15;;;;;;;;;;;;;;;-142.41;100.00;64449.00;5115850;28;19920;-64
2023/03/03 10:45:49;;;;;;;;;;;;;;;-142.41;100.00;64449.00;5115688;28;20018;-65
2023/03/03 10:48:23;;;;;;;;;;;;;;;-142.41;100.00;64449.00;5097472;28;19951;-64
2023/03/03 10:51:06;;;;;;;;;;;;;;;-142.41;100.00;64449.00;5122588;27;19915;-63
2023/03/03 10:53:46;;;;;;;;;;;;;;;-142.41;100.00;64449.00;5136122;27;20394;-64
2023/03/03 10:56:12;;;;;;;;;;;;;;;-142.41;100.00;64449.00;5136229;27;19916;-64
2023/03/03 10:58:44;;;;;;;;;;;;;;;-142.41;100.00;64449.00;5135907;27;19911;-70
2023/03/03 11:01:27;;;;;;;;;;;;;;;-142.41;100.00;64449.00;5136028;27;19912;-64
2023/03/03 11:04:11;;;;;;;;;;;;;;;-142.41;100.00;64449.00;5135791;27;20375;-65
2023/03/03 11:06:43;;;;;;;;;;;;;;;-142.41;100.00;64449.00;5135815;27;19911;-64
2023/03/03 11:09:14;;;;;;;;;;;;;;;-142.41;100.00;64449.00;5135078;27;20026;-64
2023/03/03 11:11:48;;;;;;;;;;;;;;;-142.41;100.00;64449.00;5135705;27;19975;-65
2023/03/03 11:14:29;;;;;;;;;;;;;;;-142.41;100.00;64449.00;5136017;27;20338;-67
2023/03/03 11:17:07;;;;;;;;;;;;;;;-142.41;100.00;64449.00;5136317;27;19911;-63
2023/03/03 11:19:33;;;;;;;;;;;;;;;-142.41;100.00;64449.00;5135681;27;19956;-70
2023/03/03 11:22:02;;;;;;;;;;;;;;;-142.41;100.00;64449.00;5136018;27;19911;-70
2023/03/03 11:24:47;;;;;;;;;;;;;;;-142.41;100.00;64449.00;5135882;27;19919;-70
2023/03/03 11:27:15;;;;;;;;;;;;;;;-142.41;100.00;64449.00;5135769;27;20006;-65
2023/03/03 11:29:53;;;;;;;;;;;;;;;-142.41;100.00;64449.00;5135756;27;19912;-66
2023/03/03 11:32:31;;;;;;;;;;;;;;;-142.41;100.00;64449.00;5135511;27;19919;-66
2023/03/03 11:35:03;;;;;;;;;;;;;;;-142.41;100.00;64449.00;5135851;27;19991;-66
2023/03/03 11:37:36;;;;;;;;;;;;;;;-142.41;100.00;64449.00;5135541;27;19942;-72
2023/03/03 11:40:11;;;;;;;;;;;;;;;-142.41;100.00;64449.00;5135547;27;19915;-66
2023/03/03 11:42:40;;;;;;;;;;;;;;;-142.41;100.00;64449.00;5135969;27;19937;-67
2023/03/03 11:45:17;;;;;;;;;;;;;;;-142.41;100.00;64449.00;5135607;27;19934;-69
2023/03/03 11:47:54;;;;;;;;;;;;;;;-142.41;100.00;64449.00;5135072;27;19919;-63
2023/03/03 11:50:34;;;;;;;;;;;;;;;-142.41;100.00;64449.00;5134833;27;19912;-65
2023/03/03 11:53:36;;;;;;;;;;;;;;;-142.41;100.00;64449.00;5135205;27;19922;-68
2023/03/03 11:56:23;;;;;;;;;;;;;;;-142.41;100.00;64449.00;5135584;27;19922;-68
2023/03/03 11:58:54;;;;;;;;;;;;;;;-142.41;100.00;64449.00;5135631;27;20359;-68
2023/03/03 12:01:29;;;;;;;;;;;;;;;-142.41;100.00;64449.00;5135393;27;19911;-66
2023/03/03 12:04:01;;;;;;;;;;;;;;;-142.41;100.00;64449.00;5135942;27;19911;-67
2023/03/03 12:06:49;;;;;;;;;;;;;;;-142.41;100.00;64449.00;5135394;27;19911;-68
2023/03/03 12:09:34;;;;;;;;;;;;;;;-142.41;100.00;64449.00;5136386;27;19957;-66
2023/03/03 12:12:06;;;;;;;;;;;;;;;-142.41;100.00;64449.00;5138947;27;19912;-69
2023/03/03 12:14:44;;;;;;;;;;;;;;;-142.41;100.00;64449.00;5133938;27;20266;-68
2023/03/03 12:17:12;;;;;;;;;;;;;;;-142.41;100.00;64449.00;5136331;27;19918;-67
2023/03/03 12:20:13;;;;;;;;;;;;;;;-142.41;100.00;64449.00;5136472;27;19918;-67
2023/03/03 12:23:12;;;;;;;;;;;;;;;-142.41;100.00;64449.00;5118353;27;19919;-68
2023/03/03 12:25:53;;;;;;;;;;;;;;;-142.41;100.00;64449.00;5116483;27;20274;-68
2023/03/03 12:28:21;;;;;;;;;;;;;;;-142.41;100.00;64449.00;5134790;27;20013;-68
2023/03/03 12:31:00;;;;;;;;;;;;;;;-142.41;100.00;64449.00;5133146;27;20330;-71
2023/03/03 12:33:31;;;;;;;;;;;;;;;-142.41;100.00;64449.00;5134678;27;19915;-69